ACA657 CYYC-CYVR
Flight info
| Callsign | ACA657 |
|---|---|
| Flight time | 1h 5m |
| Altitude | 40000 |
| Route | BOTAG Q894 BOOTH CANUC6 |
| Aircraft | B736/M-SDE2E3FGHIRWXY/LB1 |
Departure
| Time | 2026-05-04 16:05 |
|---|---|
| Airport | Calgary International Airport (CYYC) |
Arrival
| Time | 2026-05-04 17:10 |
|---|---|
| Airport | Vancouver International Airport (CYVR) |
| Time | Latitude | Longitude | Altitude | Speed | Heading |
|---|---|---|---|---|---|
| 2026-05-04 15:37 | 51.12802 | -114.00508 | 3552 ft | 0 kts | 39° |
| 2026-05-04 15:47 | 51.12796 | -114.00516 | 3551 ft | 3 kts | 39° |
| 2026-05-04 15:47 | 51.12781 | -114.00535 | 3551 ft | 3 kts | 39° |
| 2026-05-04 15:47 | 51.12767 | -114.00554 | 3552 ft | 3 kts | 39° |
| 2026-05-04 15:47 | 51.12752 | -114.00573 | 3552 ft | 3 kts | 39° |
| 2026-05-04 15:48 | 51.12738 | -114.00592 | 3551 ft | 3 kts | 39° |
| 2026-05-04 15:48 | 51.12736 | -114.00594 | 3549 ft | 0 kts | 39° |
| 2026-05-04 15:51 | 51.12738 | -114.00592 | 3550 ft | 1 kts | 39° |
| 2026-05-04 15:51 | 51.12747 | -114.00565 | 3552 ft | 4 kts | 81° |
| 2026-05-04 15:51 | 51.12740 | -114.00499 | 3553 ft | 8 kts | 99° |
| 2026-05-04 15:52 | 51.12732 | -114.00395 | 3553 ft | 11 kts | 95° |
| 2026-05-04 15:52 | 51.12723 | -114.00256 | 3551 ft | 14 kts | 98° |
| 2026-05-04 15:52 | 51.12713 | -114.00094 | 3555 ft | 15 kts | 93° |
| 2026-05-04 15:52 | 51.12712 | -113.99937 | 3555 ft | 14 kts | 93° |
| 2026-05-04 15:53 | 51.12706 | -113.99785 | 3555 ft | 13 kts | 93° |
| 2026-05-04 15:53 | 51.12704 | -113.99639 | 3555 ft | 13 kts | 89° |
| 2026-05-04 15:53 | 51.12698 | -113.99500 | 3554 ft | 13 kts | 120° |
| 2026-05-04 15:53 | 51.12621 | -113.99448 | 3553 ft | 12 kts | 176° |
| 2026-05-04 15:54 | 51.12536 | -113.99442 | 3553 ft | 12 kts | 178° |
| 2026-05-04 15:54 | 51.12454 | -113.99438 | 3552 ft | 12 kts | 179° |
| 2026-05-04 15:54 | 51.12374 | -113.99436 | 3551 ft | 11 kts | 181° |
| 2026-05-04 15:54 | 51.12292 | -113.99437 | 3551 ft | 12 kts | 179° |
| 2026-05-04 15:55 | 51.12202 | -113.99438 | 3550 ft | 14 kts | 180° |
| 2026-05-04 15:55 | 51.12095 | -113.99437 | 3549 ft | 17 kts | 180° |
| 2026-05-04 15:55 | 51.11969 | -113.99440 | 3549 ft | 19 kts | 181° |
| 2026-05-04 15:55 | 51.11827 | -113.99448 | 3544 ft | 21 kts | 181° |
| 2026-05-04 15:56 | 51.11682 | -113.99448 | 3548 ft | 20 kts | 179° |
| 2026-05-04 15:56 | 51.11542 | -113.99445 | 3547 ft | 20 kts | 182° |
| 2026-05-04 15:56 | 51.11406 | -113.99448 | 3543 ft | 19 kts | 179° |
| 2026-05-04 15:56 | 51.11274 | -113.99447 | 3541 ft | 19 kts | 179° |
| 2026-05-04 15:57 | 51.11147 | -113.99444 | 3538 ft | 18 kts | 183° |
| 2026-05-04 15:57 | 51.11038 | -113.99392 | 3542 ft | 17 kts | 110° |
| 2026-05-04 15:57 | 51.11034 | -113.99317 | 3540 ft | 0 kts | 91° |
| 2026-05-04 15:58 | 51.11034 | -113.99312 | 3540 ft | 1 kts | 91° |
| 2026-05-04 15:58 | 51.11034 | -113.99300 | 3540 ft | 2 kts | 91° |
| 2026-05-04 15:58 | 51.11034 | -113.99279 | 3539 ft | 2 kts | 91° |
| 2026-05-04 15:58 | 51.11033 | -113.99256 | 3539 ft | 0 kts | 91° |
| 2026-05-04 16:00 | 51.11033 | -113.99254 | 3539 ft | 0 kts | 91° |
| 2026-05-04 16:00 | 51.11033 | -113.99250 | 3539 ft | 1 kts | 91° |
| 2026-05-04 16:00 | 51.11033 | -113.99242 | 3539 ft | 1 kts | 91° |
| 2026-05-04 16:01 | 51.11033 | -113.99234 | 3538 ft | 0 kts | 91° |
| 2026-05-04 16:01 | 51.11033 | -113.99232 | 3538 ft | 0 kts | 91° |
| 2026-05-04 16:01 | 51.11033 | -113.99230 | 3538 ft | 0 kts | 91° |
| 2026-05-04 16:01 | 51.11033 | -113.99223 | 3538 ft | 1 kts | 91° |
| 2026-05-04 16:02 | 51.11033 | -113.99209 | 3538 ft | 1 kts | 90° |
| 2026-05-04 16:02 | 51.11033 | -113.99189 | 3538 ft | 2 kts | 89° |
| 2026-05-04 16:02 | 51.11034 | -113.99143 | 3537 ft | 0 kts | 87° |
| 2026-05-04 16:03 | 51.11034 | -113.99127 | 3537 ft | 5 kts | 86° |
| 2026-05-04 16:03 | 51.11060 | -113.99048 | 3537 ft | 11 kts | 27° |
| 2026-05-04 16:04 | 51.11202 | -113.99042 | 3540 ft | 43 kts | 359° |
| 2026-05-04 16:04 | 51.12658 | -113.99041 | 3550 ft | 157 kts | 360° |
| 2026-05-04 16:04 | 51.13870 | -113.99072 | 3728 ft | 181 kts | 359° |
| 2026-05-04 16:05 | 51.15125 | -113.99093 | 4412 ft | 181 kts | 358° |
| 2026-05-04 16:05 | 51.16395 | -113.99153 | 5018 ft | 185 kts | 3° |
| 2026-05-04 16:05 | 51.19109 | -113.98065 | 5863 ft | 229 kts | 14° |
| 2026-05-04 16:06 | 51.20759 | -113.97400 | 6125 ft | 260 kts | 13° |
| 2026-05-04 16:06 | 51.25784 | -113.96148 | 8128 ft | 283 kts | 346° |
| 2026-05-04 16:07 | 51.27548 | -113.97503 | 9089 ft | 285 kts | 320° |
| 2026-05-04 16:07 | 51.29069 | -114.06684 | 11119 ft | 328 kts | 256° |
| 2026-05-04 16:08 | 51.28092 | -114.10009 | 11958 ft | 334 kts | 238° |
| 2026-05-04 16:08 | 51.24079 | -114.19377 | 14683 ft | 348 kts | 236° |
| 2026-05-04 16:09 | 51.21351 | -114.25882 | 16468 ft | 357 kts | 237° |
| 2026-05-04 16:09 | 51.18594 | -114.32603 | 18111 ft | 367 kts | 237° |
| 2026-05-04 16:10 | 51.15776 | -114.39510 | 19731 ft | 376 kts | 237° |
| 2026-05-04 16:11 | 51.11424 | -114.50156 | 21987 ft | 390 kts | 237° |
| 2026-05-04 16:11 | 51.09932 | -114.53793 | 22682 ft | 394 kts | 237° |
| 2026-05-04 16:12 | 51.06193 | -114.65524 | 24658 ft | 407 kts | 256° |
| 2026-05-04 16:12 | 51.04197 | -114.78853 | 26467 ft | 419 kts | 256° |
| 2026-05-04 16:13 | 51.02750 | -114.87909 | 27576 ft | 427 kts | 256° |
| 2026-05-04 16:13 | 51.01247 | -114.97138 | 28499 ft | 436 kts | 255° |
| 2026-05-04 16:14 | 50.99714 | -115.06526 | 29447 ft | 442 kts | 255° |
| 2026-05-04 16:14 | 50.98160 | -115.16017 | 30393 ft | 446 kts | 255° |
| 2026-05-04 16:15 | 50.95809 | -115.30293 | 31942 ft | 445 kts | 255° |
| 2026-05-04 16:16 | 50.94251 | -115.39689 | 33107 ft | 441 kts | 255° |
| 2026-05-04 16:16 | 50.91896 | -115.53788 | 34500 ft | 441 kts | 255° |
| 2026-05-04 16:17 | 50.90333 | -115.63084 | 35601 ft | 436 kts | 255° |
| 2026-05-04 16:18 | 50.87985 | -115.76960 | 36001 ft | 434 kts | 255° |
| 2026-05-04 16:18 | 50.87199 | -115.81580 | 35995 ft | 436 kts | 255° |
| 2026-05-04 16:19 | 50.83213 | -116.04812 | 35983 ft | 428 kts | 255° |
| 2026-05-04 16:20 | 50.79238 | -116.27689 | 35993 ft | 428 kts | 255° |
| 2026-05-04 16:22 | 50.75232 | -116.50326 | 36011 ft | 436 kts | 253° |
| 2026-05-04 16:23 | 50.69844 | -116.77881 | 35999 ft | 433 kts | 253° |
| 2026-05-04 16:25 | 50.64454 | -117.05215 | 36002 ft | 433 kts | 252° |
| 2026-05-04 16:26 | 50.58114 | -117.36908 | 36006 ft | 435 kts | 252° |
| 2026-05-04 16:28 | 50.53538 | -117.59465 | 36001 ft | 432 kts | 252° |
| 2026-05-04 16:29 | 50.47091 | -117.90815 | 35993 ft | 428 kts | 252° |
| 2026-05-04 16:31 | 50.42503 | -118.12828 | 35994 ft | 427 kts | 252° |
| 2026-05-04 16:31 | 50.39674 | -118.26284 | 36004 ft | 439 kts | 252° |
| 2026-05-04 16:32 | 50.36801 | -118.39853 | 35992 ft | 431 kts | 251° |
| 2026-05-04 16:33 | 50.32986 | -118.57736 | 36002 ft | 433 kts | 251° |
| 2026-05-04 16:34 | 50.30114 | -118.71099 | 35998 ft | 431 kts | 251° |
| 2026-05-04 16:35 | 50.24374 | -118.97543 | 35997 ft | 425 kts | 251° |
| 2026-05-04 16:36 | 50.21509 | -119.10614 | 35997 ft | 423 kts | 251° |
| 2026-05-04 16:37 | 50.18632 | -119.23658 | 36003 ft | 424 kts | 251° |
| 2026-05-04 16:38 | 50.14760 | -119.41088 | 35994 ft | 426 kts | 251° |
| 2026-05-04 16:39 | 50.09869 | -119.62897 | 35993 ft | 427 kts | 251° |
| 2026-05-04 16:40 | 50.05918 | -119.80353 | 36001 ft | 430 kts | 250° |
| 2026-05-04 16:41 | 50.00835 | -120.02600 | 35993 ft | 441 kts | 250° |
| 2026-05-04 16:43 | 49.95657 | -120.25026 | 35999 ft | 441 kts | 250° |
| 2026-05-04 16:43 | 49.92532 | -120.38448 | 35792 ft | 443 kts | 250° |
| 2026-05-04 16:44 | 49.88316 | -120.56423 | 33103 ft | 440 kts | 250° |
| 2026-05-04 16:45 | 49.86235 | -120.65242 | 32005 ft | 431 kts | 250° |
| 2026-05-04 16:46 | 49.83174 | -120.78145 | 30415 ft | 419 kts | 250° |
| 2026-05-04 16:46 | 49.81173 | -120.86539 | 29384 ft | 411 kts | 250° |
| 2026-05-04 16:47 | 49.79535 | -120.93390 | 28501 ft | 405 kts | 250° |
| 2026-05-04 16:47 | 49.77588 | -121.01500 | 27457 ft | 398 kts | 250° |
| 2026-05-04 16:48 | 49.74717 | -121.13407 | 25929 ft | 389 kts | 250° |
| 2026-05-04 16:48 | 49.73772 | -121.17313 | 25433 ft | 386 kts | 249° |
| 2026-05-04 16:49 | 49.71902 | -121.25022 | 24454 ft | 380 kts | 249° |
| 2026-05-04 16:49 | 49.70058 | -121.32597 | 23472 ft | 374 kts | 249° |
| 2026-05-04 16:50 | 49.68248 | -121.40004 | 22533 ft | 367 kts | 249° |
| 2026-05-04 16:50 | 49.66454 | -121.47324 | 21596 ft | 361 kts | 249° |
| 2026-05-04 16:51 | 49.64685 | -121.54519 | 20653 ft | 356 kts | 249° |
| 2026-05-04 16:51 | 49.63807 | -121.58081 | 20193 ft | 354 kts | 249° |
| 2026-05-04 16:51 | 49.62067 | -121.65124 | 19268 ft | 349 kts | 249° |
| 2026-05-04 16:52 | 49.60345 | -121.72071 | 18356 ft | 344 kts | 249° |
| 2026-05-04 16:52 | 49.59492 | -121.75505 | 17900 ft | 342 kts | 249° |
| 2026-05-04 16:53 | 49.57797 | -121.82314 | 17010 ft | 337 kts | 249° |
| 2026-05-04 16:53 | 49.55308 | -121.92278 | 15689 ft | 328 kts | 249° |
| 2026-05-04 16:54 | 49.54490 | -121.95547 | 15243 ft | 326 kts | 249° |
| 2026-05-04 16:55 | 49.50900 | -122.08183 | 13390 ft | 321 kts | 237° |
| 2026-05-04 16:55 | 49.48498 | -122.13889 | 12492 ft | 318 kts | 238° |
| 2026-05-04 16:56 | 49.46171 | -122.19624 | 11609 ft | 314 kts | 239° |
| 2026-05-04 16:56 | 49.42822 | -122.28085 | 10579 ft | 298 kts | 239° |
| 2026-05-04 16:57 | 49.41762 | -122.30751 | 10433 ft | 287 kts | 239° |
| 2026-05-04 16:57 | 49.39703 | -122.35748 | 10072 ft | 271 kts | 231° |
| 2026-05-04 16:58 | 49.35985 | -122.42180 | 9143 ft | 266 kts | 228° |
| 2026-05-04 16:58 | 49.34732 | -122.44258 | 8840 ft | 264 kts | 227° |
| 2026-05-04 16:59 | 49.32262 | -122.48402 | 8201 ft | 262 kts | 228° |
| 2026-05-04 17:00 | 49.27435 | -122.56608 | 6979 ft | 257 kts | 228° |
| 2026-05-04 17:00 | 49.23905 | -122.62636 | 6087 ft | 252 kts | 228° |
| 2026-05-04 17:01 | 49.21564 | -122.66617 | 5490 ft | 251 kts | 228° |
| 2026-05-04 17:01 | 49.19521 | -122.70882 | 4890 ft | 248 kts | 239° |
| 2026-05-04 17:02 | 49.17852 | -122.75148 | 4669 ft | 219 kts | 239° |
| 2026-05-04 17:02 | 49.16374 | -122.78865 | 4441 ft | 189 kts | 244° |
| 2026-05-04 17:03 | 49.16152 | -122.80768 | 4072 ft | 180 kts | 277° |
| 2026-05-04 17:03 | 49.16312 | -122.82555 | 4033 ft | 160 kts | 278° |
| 2026-05-04 17:03 | 49.16639 | -122.85688 | 3872 ft | 138 kts | 280° |
| 2026-05-04 17:04 | 49.16949 | -122.88457 | 3553 ft | 135 kts | 280° |
| 2026-05-04 17:04 | 49.17266 | -122.91187 | 3204 ft | 129 kts | 279° |
| 2026-05-04 17:05 | 49.17568 | -122.93871 | 2868 ft | 129 kts | 279° |
| 2026-05-04 17:05 | 49.17868 | -122.96562 | 2520 ft | 128 kts | 279° |
| 2026-05-04 17:06 | 49.18166 | -122.99243 | 2187 ft | 127 kts | 280° |
| 2026-05-04 17:06 | 49.18315 | -123.00569 | 2026 ft | 127 kts | 279° |
| 2026-05-04 17:07 | 49.18614 | -123.03230 | 1680 ft | 126 kts | 279° |
| 2026-05-04 17:07 | 49.18713 | -123.04124 | 1576 ft | 126 kts | 279° |
| 2026-05-04 17:07 | 49.18910 | -123.05877 | 1345 ft | 125 kts | 279° |
| 2026-05-04 17:07 | 49.19058 | -123.07189 | 1189 ft | 126 kts | 279° |
| 2026-05-04 17:08 | 49.19205 | -123.08513 | 1010 ft | 125 kts | 278° |
| 2026-05-04 17:08 | 49.19495 | -123.11125 | 661 ft | 122 kts | 279° |
| 2026-05-04 17:08 | 49.19635 | -123.12401 | 522 ft | 123 kts | 278° |
| 2026-05-04 17:09 | 49.19781 | -123.13696 | 387 ft | 124 kts | 279° |
| 2026-05-04 17:09 | 49.19926 | -123.15003 | 245 ft | 125 kts | 279° |
| 2026-05-04 17:09 | 49.20078 | -123.16311 | 58 ft | 122 kts | 279° |
| 2026-05-04 17:10 | 49.20286 | -123.18131 | 17 ft | 31 kts | 280° |
| 2026-05-04 17:10 | 49.20268 | -123.18422 | 18 ft | 6 kts | 136° |
| 2026-05-04 17:11 | 49.20216 | -123.18332 | 18 ft | 14 kts | 129° |
| 2026-05-04 17:11 | 49.20150 | -123.18212 | 17 ft | 15 kts | 136° |
| 2026-05-04 17:11 | 49.20088 | -123.18441 | 16 ft | 15 kts | 231° |
| 2026-05-04 17:12 | 49.20002 | -123.18516 | 17 ft | 14 kts | 197° |
| 2026-05-04 17:12 | 49.19816 | -123.18561 | 17 ft | 13 kts | 186° |
| 2026-05-04 17:13 | 49.19719 | -123.18530 | 19 ft | 1 kts | 99° |
| 2026-05-04 17:14 | 49.19605 | -123.18380 | 18 ft | 0 kts | 182° |